Time;durP1;ratioP1;P1;durP2;ratioP2;P2;SDS_P1;SDS_P2;PMS_P1;PMS_P2;Temp;Humidity;BMP_temperature;BMP_pressure;BME280_temperature;BME280_humidity;BME280_pressure;Samples;Min_cycle;Max_cycle;Signal;HPM_P1;HPM_P2
2023/03/13 00:00:05;;;;;;;;;15.00;15.00;;;;;;;;5227727;28;8824;-70
2023/03/13 00:02:36;;;;;;;;;14.00;14.00;;;;;;;;5227267;28;8794;-70
2023/03/13 00:05:07;;;;;;;;;17.00;17.00;;;;;;;;5228308;28;8808;-70
2023/03/13 00:07:38;;;;;;;;;24.60;24.60;;;;;;;;5226623;28;9050;-72
2023/03/13 00:10:09;;;;;;;;;16.80;16.60;;;;;;;;5227341;28;8782;-72
2023/03/13 00:12:40;;;;;;;;;13.80;13.80;;;;;;;;5227055;28;8821;-73
2023/03/13 00:15:11;;;;;;;;;11.20;11.00;;;;;;;;5210703;28;8781;-72
2023/03/13 00:18:01;;;;;;;;;15.60;15.60;;;;;;;;5212811;28;8828;-72
2023/03/13 00:20:32;;;;;;;;;12.80;12.20;;;;;;;;5226906;28;8801;-73
2023/03/13 00:23:03;;;;;;;;;11.60;11.60;;;;;;;;5210458;28;8805;-72
2023/03/13 00:25:34;;;;;;;;;15.60;14.40;;;;;;;;5226788;28;8786;-72
2023/03/13 00:28:05;;;;;;;;;42.40;39.00;;;;;;;;5226386;28;8876;-72
2023/03/13 00:30:36;;;;;;;;;19.00;17.20;;;;;;;;5227583;28;8827;-72
2023/03/13 00:33:07;;;;;;;;;11.75;11.75;;;;;;;;5209837;28;8818;-72
2023/03/13 00:35:38;;;;;;;;;7.20;7.00;;;;;;;;5226353;28;8915;-72
2023/03/13 00:38:08;;;;;;;;;11.50;11.50;;;;;;;;5226907;28;8843;-72
2023/03/13 00:40:39;;;;;;;;;3.40;3.20;;;;;;;;5214723;28;8784;-72
2023/03/13 00:43:10;;;;;;;;;11.60;11.60;;;;;;;;5227277;28;8790;-72
2023/03/13 00:45:43;;;;;;;;;10.00;10.00;;;;;;;;5234632;28;8794;-71
2023/03/13 00:48:14;;;;;;;;;10.40;10.40;;;;;;;;5209351;28;8875;-73
2023/03/13 00:50:45;;;;;;;;;10.60;10.60;;;;;;;;5225874;28;8813;-73
2023/03/13 00:53:17;;;;;;;;;7.80;7.80;;;;;;;;5211240;28;8832;-73
2023/03/13 00:55:54;;;;;;;;;19.80;19.80;;;;;;;;5217066;28;8790;-72
2023/03/13 00:58:25;;;;;;;;;13.60;13.60;;;;;;;;5210465;28;8805;-73
2023/03/13 01:00:57;;;;;;;;;24.60;22.40;;;;;;;;5225537;28;8849;-72
2023/03/13 01:03:28;;;;;;;;;33.40;32.20;;;;;;;;5208960;28;9575;-74
2023/03/13 01:06:00;;;;;;;;;8.40;8.40;;;;;;;;5214661;28;8800;-73
2023/03/13 01:08:31;;;;;;;;;11.80;11.80;;;;;;;;5198515;28;8782;-72
2023/03/13 01:11:04;;;;;;;;;7.25;7.25;;;;;;;;5219896;28;8801;-72
2023/03/13 01:13:35;;;;;;;;;10.60;10.60;;;;;;;;5225229;28;9502;-72
2023/03/13 01:16:08;;;;;;;;;9.80;9.80;;;;;;;;5206603;28;9529;-73
2023/03/13 01:19:02;;;;;;;;;7.20;7.20;;;;;;;;5224631;28;8911;-72
2023/03/13 01:21:52;;;;;;;;;7.00;7.00;;;;;;;;5248854;28;8817;-74
2023/03/13 01:24:23;;;;;;;;;7.00;7.00;;;;;;;;5225082;28;8789;-73
2023/03/13 01:26:54;;;;;;;;;10.00;10.00;;;;;;;;5236966;28;8788;-73
2023/03/13 01:29:25;;;;;;;;;7.50;7.50;;;;;;;;5196426;28;8807;-72
2023/03/13 01:31:56;;;;;;;;;8.40;8.40;;;;;;;;5230632;28;8959;-71
2023/03/13 01:34:29;;;;;;;;;10.80;10.80;;;;;;;;5229564;28;8875;-72
2023/03/13 01:37:18;;;;;;;;;11.40;11.40;;;;;;;;5231244;28;8773;-71
2023/03/13 01:39:49;;;;;;;;;12.60;12.40;;;;;;;;5229094;28;8765;-72
2023/03/13 01:42:20;;;;;;;;;9.40;9.40;;;;;;;;5212336;28;8784;-73
2023/03/13 01:44:52;;;;;;;;;10.00;10.00;;;;;;;;5228580;28;8789;-74
2023/03/13 01:47:23;;;;;;;;;6.80;6.60;;;;;;;;5228862;28;8873;-74
2023/03/13 01:50:07;;;;;;;;;4.80;4.80;;;;;;;;5228969;28;8793;-74
2023/03/13 01:53:06;;;;;;;;;7.20;7.20;;;;;;;;5211763;28;8806;-73
2023/03/13 01:55:37;;;;;;;;;8.00;8.00;;;;;;;;5225281;28;9599;-73
2023/03/13 01:58:08;;;;;;;;;5.00;5.00;;;;;;;;5218257;28;8794;-73
2023/03/13 02:00:41;;;;;;;;;3.80;3.80;;;;;;;;5245322;28;9507;-73
2023/03/13 02:03:16;;;;;;;;;5.80;5.80;;;;;;;;5229232;28;8861;-71
2023/03/13 02:05:49;;;;;;;;;6.00;6.00;;;;;;;;5212278;28;8780;-69
2023/03/13 02:08:21;;;;;;;;;4.20;4.20;;;;;;;;5229394;28;8765;-69
2023/03/13 02:10:57;;;;;;;;;12.00;12.00;;;;;;;;5250306;28;8793;-69
2023/03/13 02:13:29;;;;;;;;;6.20;5.80;;;;;;;;5249953;28;8774;-70
2023/03/13 02:16:00;;;;;;;;;6.60;6.60;;;;;;;;5249855;28;8817;-70
2023/03/13 02:18:49;;;;;;;;;6.80;6.80;;;;;;;;5235390;28;8783;-70
2023/03/13 02:21:47;;;;;;;;;4.60;4.60;;;;;;;;5233435;28;8883;-70
2023/03/13 02:24:48;;;;;;;;;3.00;3.00;;;;;;;;5234817;28;8790;-70
2023/03/13 02:27:19;;;;;;;;;2.00;2.00;;;;;;;;5267969;28;8794;-70
2023/03/13 02:29:51;;;;;;;;;3.00;3.00;;;;;;;;5229934;28;8761;-70
2023/03/13 02:32:24;;;;;;;;;3.75;3.75;;;;;;;;5227070;28;8818;-70
2023/03/13 02:34:57;;;;;;;;;2.00;2.00;;;;;;;;5249547;28;8806;-71
2023/03/13 02:37:52;;;;;;;;;3.80;3.80;;;;;;;;5252247;28;8797;-70
2023/03/13 02:40:27;;;;;;;;;3.25;3.25;;;;;;;;5232846;28;8889;-70
2023/03/13 02:43:00;;;;;;;;;5.00;5.00;;;;;;;;5249447;28;8904;-70
2023/03/13 02:45:32;;;;;;;;;5.40;5.40;;;;;;;;5265188;28;9551;-70
2023/03/13 02:48:03;;;;;;;;;2.00;2.00;;;;;;;;5228619;28;8846;-70
2023/03/13 02:50:36;;;;;;;;;1.00;1.00;;;;;;;;5228458;28;8777;-70
2023/03/13 02:53:08;;;;;;;;;2.20;2.20;;;;;;;;5230837;28;8805;-70
2023/03/13 02:55:40;;;;;;;;;2.80;2.80;;;;;;;;5228542;28;8781;-70
2023/03/13 02:58:12;;;;;;;;;4.00;4.00;;;;;;;;5234818;28;8816;-70
2023/03/13 03:00:44;;;;;;;;;2.25;2.25;;;;;;;;5232823;28;8774;-70
2023/03/13 03:03:15;;;;;;;;;12.00;12.00;;;;;;;;5249303;28;8794;-71
2023/03/13 03:05:46;;;;;;;;;3.75;3.75;;;;;;;;5232334;28;9578;-71
2023/03/13 03:08:17;;;;;;;;;3.00;3.00;;;;;;;;5249042;28;8771;-70
2023/03/13 03:10:48;;;;;;;;;3.00;3.00;;;;;;;;5232395;28;8781;-70
2023/03/13 03:13:20;;;;;;;;;3.00;3.00;;;;;;;;5222001;28;8821;-70
2023/03/13 03:15:51;;;;;;;;;4.25;4.25;;;;;;;;5211298;28;8784;-70
2023/03/13 03:18:22;;;;;;;;;3.00;3.00;;;;;;;;5227422;28;8814;-70
2023/03/13 03:20:53;;;;;;;;;7.50;7.50;;;;;;;;5249072;28;8763;-70
2023/03/13 03:23:24;;;;;;;;;7.50;6.75;;;;;;;;5269785;28;8817;-71
2023/03/13 03:25:56;;;;;;;;;7.00;7.00;;;;;;;;5252798;28;8802;-71
2023/03/13 03:28:26;;;;;;;;;13.00;13.00;;;;;;;;5252876;28;8787;-71
2023/03/13 03:31:16;;;;;;;;;5.00;5.00;;;;;;;;5268235;28;8918;-71
2023/03/13 03:33:48;;;;;;;;;6.00;6.00;;;;;;;;5217870;28;8913;-71
2023/03/13 03:36:22;;;;;;;;;2.25;2.25;;;;;;;;5230193;28;8800;-72
2023/03/13 03:38:53;;;;;;;;;7.40;7.40;;;;;;;;5215220;28;8788;-72
2023/03/13 03:41:29;;;;;;;;;3.00;3.00;;;;;;;;5232043;28;8780;-73
2023/03/13 03:44:00;;;;;;;;;4.00;3.25;;;;;;;;5231635;28;8794;-73
2023/03/13 03:46:40;;;;;;;;;6.75;6.75;;;;;;;;5246451;28;8813;-73
2023/03/13 03:49:11;;;;;;;;;7.20;7.20;;;;;;;;5268858;28;8806;-73
2023/03/13 03:51:42;;;;;;;;;5.40;5.40;;;;;;;;5244473;28;8891;-75
2023/03/13 03:54:14;;;;;;;;;9.20;8.80;;;;;;;;5231422;28;9512;-75
2023/03/13 03:56:46;;;;;;;;;7.50;7.50;;;;;;;;5232674;28;9593;-74
2023/03/13 03:59:17;;;;;;;;;6.40;6.40;;;;;;;;5198678;28;8797;-73
2023/03/13 04:01:52;;;;;;;;;3.00;3.00;;;;;;;;5231744;28;8935;-73
2023/03/13 04:04:27;;;;;;;;;3.40;3.00;;;;;;;;5231768;28;8776;-73
2023/03/13 04:07:28;;;;;;;;;1.00;1.00;;;;;;;;5218325;28;8785;-82
2023/03/13 04:10:02;;;;;;;;;3.75;3.75;;;;;;;;5202050;28;9536;-80
2023/03/13 04:12:42;;;;;;;;;4.75;3.75;;;;;;;;5235824;28;8819;-80
2023/03/13 04:15:33;;;;;;;;;4.25;4.25;;;;;;;;5236300;28;8806;-81
2023/03/13 04:18:07;;;;;;;;;3.00;3.00;;;;;;;;5236052;28;8885;-80
2023/03/13 04:20:40;;;;;;;;;3.00;3.00;;;;;;;;5236809;28;8846;-82
2023/03/13 04:23:13;;;;;;;;;3.50;3.50;;;;;;;;5236386;28;8789;-81
2023/03/13 04:26:03;;;;;;;;;2.00;2.00;;;;;;;;5234260;28;8788;-82
2023/03/13 04:28:37;;;;;;;;;4.00;4.00;;;;;;;;5248462;28;8803;-81
2023/03/13 04:31:11;;;;;;;;;3.50;3.50;;;;;;;;5208670;28;8933;-81
2023/03/13 04:34:05;;;;;;;;;0.50;0.50;;;;;;;;5216233;28;8926;-80
2023/03/13 04:36:54;;;;;;;;;3.50;3.50;;;;;;;;5216680;28;8831;-81
2023/03/13 04:39:47;;;;;;;;;3.00;3.00;;;;;;;;5211016;28;8817;-82
2023/03/13 04:42:39;;;;;;;;;2.00;2.00;;;;;;;;5234020;28;8929;-81
2023/03/13 04:45:32;;;;;;;;;1.75;1.75;;;;;;;;5219802;28;8809;-82
2023/03/13 04:48:29;;;;;;;;;1.00;1.00;;;;;;;;5201411;28;8809;-83
2023/03/13 04:51:21;;;;;;;;;2.00;2.00;;;;;;;;5218564;28;9524;-82
2023/03/13 04:54:00;;;;;;;;;2.50;2.50;;;;;;;;5199311;28;8807;-84
2023/03/13 04:56:47;;;;;;;;;2.50;2.50;;;;;;;;5200316;28;8838;-82
2023/03/13 04:59:34;;;;;;;;;3.00;3.00;;;;;;;;5215747;28;8785;-79
2023/03/13 05:02:05;;;;;;;;;2.00;2.00;;;;;;;;5218278;28;8801;-72
2023/03/13 05:05:01;;;;;;;;;3.00;3.00;;;;;;;;5217590;28;8773;-80
2023/03/13 05:07:55;;;;;;;;;4.25;4.25;;;;;;;;5216957;28;8785;-81
2023/03/13 05:10:44;;;;;;;;;1.00;1.00;;;;;;;;5205075;28;8859;-80
2023/03/13 05:13:56;;;;;;;;;3.00;3.00;;;;;;;;5159151;28;8844;-82
2023/03/13 05:17:02;;;;;;;;;6.50;6.50;;;;;;;;5113932;28;8804;-78
2023/03/13 05:19:54;;;;;;;;;7.80;7.20;;;;;;;;5209212;28;8780;-80
2023/03/13 05:22:48;;;;;;;;;3.80;3.80;;;;;;;;5204493;28;8797;-80
2023/03/13 05:25:39;;;;;;;;;4.67;4.67;;;;;;;;5235079;28;8840;-70
2023/03/13 05:28:29;;;;;;;;;11.60;11.60;;;;;;;;5251327;28;8774;-71
2023/03/13 05:31:22;;;;;;;;;40.00;35.80;;;;;;;;5240985;28;8806;-71
2023/03/13 05:34:06;;;;;;;;;19.60;19.60;;;;;;;;5231914;28;8825;-72
2023/03/13 05:36:55;;;;;;;;;25.00;24.80;;;;;;;;5251721;28;8829;-72
2023/03/13 05:40:03;;;;;;;;;8.80;8.80;;;;;;;;5181568;28;8795;-76
2023/03/13 05:42:53;;;;;;;;;6.80;6.80;;;;;;;;5227630;28;8846;-73
2023/03/13 05:45:46;;;;;;;;;1.00;1.00;;;;;;;;5216849;28;8829;-75
2023/03/13 05:48:40;;;;;;;;;4.00;4.00;;;;;;;;5205758;28;8800;-74
2023/03/13 05:51:37;;;;;;;;;3.80;3.00;;;;;;;;5229919;28;8849;-74
2023/03/13 05:54:36;;;;;;;;;2.00;2.00;;;;;;;;5235082;28;9549;-72
2023/03/13 05:57:25;;;;;;;;;7.80;7.80;;;;;;;;5232473;28;8832;-73
2023/03/13 05:59:59;;;;;;;;;0.75;0.75;;;;;;;;5229354;28;8923;-72
2023/03/13 06:03:02;;;;;;;;;6.00;6.00;;;;;;;;5262151;28;8796;-72
2023/03/13 06:05:39;;;;;;;;;7.00;6.80;;;;;;;;5207658;28;8770;-72
2023/03/13 06:08:19;;;;;;;;;3.00;3.00;;;;;;;;5228797;28;8878;-72
2023/03/13 06:10:50;;;;;;;;;0.75;0.75;;;;;;;;5208203;28;8811;-74
2023/03/13 06:13:21;;;;;;;;;0.75;0.75;;;;;;;;5208374;28;8818;-72
2023/03/13 06:15:58;;;;;;;;;5.40;5.40;;;;;;;;5221240;28;8793;-72
2023/03/13 06:18:58;;;;;;;;;11.60;11.60;;;;;;;;5225369;28;8821;-72
2023/03/13 06:21:29;;;;;;;;;4.00;3.00;;;;;;;;5224754;28;8802;-73
2023/03/13 06:24:00;;;;;;;;;4.50;4.50;;;;;;;;5208117;28;8866;-74
2023/03/13 06:26:31;;;;;;;;;1.80;1.80;;;;;;;;5215009;28;8800;-73
2023/03/13 06:29:03;;;;;;;;;18.40;16.60;;;;;;;;5229229;28;8878;-73
2023/03/13 06:31:34;;;;;;;;;13.40;13.40;;;;;;;;5211846;28;9632;-73
2023/03/13 06:34:05;;;;;;;;;16.60;16.60;;;;;;;;5228498;28;8836;-74
2023/03/13 06:36:36;;;;;;;;;17.20;17.20;;;;;;;;5244326;28;8855;-75
2023/03/13 06:39:07;;;;;;;;;17.50;17.50;;;;;;;;5227390;28;8836;-75
2023/03/13 06:41:38;;;;;;;;;16.80;16.80;;;;;;;;5211479;28;11626;-73
2023/03/13 06:44:09;;;;;;;;;17.80;16.60;;;;;;;;5245975;28;8800;-74
2023/03/13 06:46:40;;;;;;;;;23.80;21.60;;;;;;;;5228212;28;8797;-73
2023/03/13 06:49:11;;;;;;;;;6.75;6.75;;;;;;;;5246064;28;9550;-73
2023/03/13 06:51:44;;;;;;;;;1.75;1.75;;;;;;;;5227963;28;11461;-73
2023/03/13 06:54:16;;;;;;;;;8.60;7.20;;;;;;;;5225884;28;10107;-72
2023/03/13 06:56:47;;;;;;;;;6.60;6.60;;;;;;;;5194728;28;8792;-72
2023/03/13 06:59:17;;;;;;;;;5.00;5.00;;;;;;;;5211504;28;8784;-73
2023/03/13 07:01:48;;;;;;;;;5.00;5.00;;;;;;;;5211450;28;10268;-73
2023/03/13 07:04:19;;;;;;;;;81.00;63.25;;;;;;;;5245637;28;10533;-75
2023/03/13 07:06:51;;;;;;;;;44.25;38.00;;;;;;;;5211818;28;8808;-76
2023/03/13 07:09:22;;;;;;;;;32.00;30.80;;;;;;;;5211571;28;8797;-73
2023/03/13 07:11:53;;;;;;;;;7.00;7.00;;;;;;;;5228137;28;8824;-75
2023/03/13 07:14:24;;;;;;;;;5.40;5.40;;;;;;;;5227976;28;8789;-76
2023/03/13 07:17:14;;;;;;;;;5.00;5.00;;;;;;;;5226255;28;8780;-78
2023/03/13 07:19:45;;;;;;;;;6.00;6.00;;;;;;;;5227429;28;8800;-78
2023/03/13 07:22:35;;;;;;;;;8.40;8.40;;;;;;;;5220185;28;9569;-76
2023/03/13 07:25:08;;;;;;;;;73.60;51.00;;;;;;;;5207216;28;8825;-77
2023/03/13 07:27:39;;;;;;;;;129.00;99.25;;;;;;;;5189219;28;8807;-75
2023/03/13 07:30:10;;;;;;;;;109.50;88.75;;;;;;;;5211618;28;8902;-76
2023/03/13 07:32:41;;;;;;;;;62.40;50.80;;;;;;;;5256581;28;10257;-76
2023/03/13 07:35:12;;;;;;;;;27.20;25.80;;;;;;;;5211150;28;8777;-75
2023/03/13 07:37:44;;;;;;;;;12.00;12.00;;;;;;;;5240074;28;8810;-75
2023/03/13 07:40:15;;;;;;;;;15.40;15.40;;;;;;;;5244771;28;11490;-77
2023/03/13 07:42:45;;;;;;;;;9.20;9.20;;;;;;;;5241673;28;8793;-77
2023/03/13 07:45:16;;;;;;;;;7.50;7.50;;;;;;;;5214865;28;8828;-77
2023/03/13 07:47:47;;;;;;;;;7.00;7.00;;;;;;;;5251226;28;11409;-76
2023/03/13 07:50:18;;;;;;;;;15.75;14.00;;;;;;;;5225985;28;8785;-76
2023/03/13 07:52:49;;;;;;;;;8.50;8.50;;;;;;;;5241056;28;9898;-76
2023/03/13 07:55:20;;;;;;;;;4.60;4.60;;;;;;;;5218378;28;8796;-77
2023/03/13 07:57:51;;;;;;;;;92.80;70.80;;;;;;;;5228176;28;8785;-75
2023/03/13 08:00:22;;;;;;;;;70.50;52.00;;;;;;;;5227527;28;9601;-73
2023/03/13 08:02:56;;;;;;;;;66.40;51.60;;;;;;;;5254930;28;8798;-73
2023/03/13 08:05:27;;;;;;;;;57.00;47.20;;;;;;;;5258942;28;8835;-73
2023/03/13 08:07:57;;;;;;;;;75.50;57.25;;;;;;;;5253032;28;8782;-73
2023/03/13 08:10:30;;;;;;;;;23.40;19.60;;;;;;;;5253929;28;9670;-73
2023/03/13 08:13:01;;;;;;;;;11.00;11.00;;;;;;;;5242975;28;8894;-73
2023/03/13 08:15:32;;;;;;;;;3.20;3.20;;;;;;;;5250183;28;8797;-74
2023/03/13 08:18:21;;;;;;;;;11.00;11.00;;;;;;;;5217316;28;9531;-73
2023/03/13 08:20:52;;;;;;;;;6.25;6.25;;;;;;;;5218057;28;8781;-72
2023/03/13 08:23:23;;;;;;;;;11.25;11.25;;;;;;;;5231076;28;8889;-74
2023/03/13 08:25:54;;;;;;;;;11.00;11.00;;;;;;;;5227733;28;8788;-73
2023/03/13 08:28:25;;;;;;;;;4.60;4.60;;;;;;;;5219176;28;8816;-72
2023/03/13 08:30:56;;;;;;;;;7.80;7.80;;;;;;;;5200242;28;8802;-72
2023/03/13 08:33:27;;;;;;;;;7.00;7.00;;;;;;;;5250527;28;8848;-72
2023/03/13 08:35:58;;;;;;;;;11.75;11.75;;;;;;;;5230444;28;9531;-73
2023/03/13 08:38:29;;;;;;;;;4.00;4.00;;;;;;;;5245905;28;8803;-72
2023/03/13 08:40:59;;;;;;;;;7.00;7.00;;;;;;;;5216334;28;11663;-73
2023/03/13 08:43:50;;;;;;;;;8.00;8.00;;;;;;;;5251279;28;8804;-74
2023/03/13 08:46:22;;;;;;;;;5.00;4.80;;;;;;;;5230415;28;8847;-72
2023/03/13 08:48:53;;;;;;;;;16.20;16.20;;;;;;;;5227475;28;8825;-75
2023/03/13 08:51:26;;;;;;;;;9.20;9.20;;;;;;;;5246513;28;8920;-74
2023/03/13 08:53:57;;;;;;;;;9.20;9.20;;;;;;;;5212376;28;8828;-74
2023/03/13 08:56:29;;;;;;;;;8.50;8.50;;;;;;;;5243193;28;8794;-73
2023/03/13 08:59:01;;;;;;;;;13.20;13.20;;;;;;;;5195660;28;9021;-81
2023/03/13 09:01:33;;;;;;;;;15.60;15.60;;;;;;;;5197574;28;8802;-81
2023/03/13 09:04:04;;;;;;;;;25.80;24.60;;;;;;;;5226912;28;8798;-80
2023/03/13 09:06:36;;;;;;;;;22.20;20.40;;;;;;;;5225521;28;8769;-80
2023/03/13 09:09:08;;;;;;;;;21.80;19.20;;;;;;;;5205452;28;8813;-81
2023/03/13 09:11:39;;;;;;;;;24.00;16.60;;;;;;;;5219182;28;9530;-79
2023/03/13 09:14:10;;;;;;;;;25.00;20.80;;;;;;;;5229085;28;8899;-81
2023/03/13 09:16:41;;;;;;;;;18.75;17.00;;;;;;;;5201982;28;8828;-83
2023/03/13 09:19:13;;;;;;;;;8.20;8.20;;;;;;;;5197491;28;11465;-82
2023/03/13 09:21:45;;;;;;;;;16.40;15.00;;;;;;;;5211317;28;8825;-81
2023/03/13 09:24:16;;;;;;;;;19.60;19.60;;;;;;;;5188980;28;8881;-83
2023/03/13 09:27:05;;;;;;;;;10.40;10.40;;;;;;;;5215470;28;8833;-81
2023/03/13 09:29:40;;;;;;;;;10.20;10.20;;;;;;;;5229628;28;8825;-82
2023/03/13 09:32:11;;;;;;;;;6.20;6.20;;;;;;;;5211461;28;8830;-81
2023/03/13 09:34:42;;;;;;;;;10.00;10.00;;;;;;;;5217074;28;9506;-81
2023/03/13 09:37:15;;;;;;;;;7.20;7.20;;;;;;;;5229719;28;8826;-81
2023/03/13 09:39:47;;;;;;;;;6.40;6.20;;;;;;;;5228340;28;8855;-80
2023/03/13 09:42:34;;;;;;;;;11.40;11.40;;;;;;;;5216586;28;8815;-81
2023/03/13 09:45:27;;;;;;;;;8.60;8.60;;;;;;;;5222907;28;8931;-81
2023/03/13 09:48:17;;;;;;;;;11.00;10.60;;;;;;;;5231993;28;8803;-79
2023/03/13 09:50:58;;;;;;;;;13.00;11.40;;;;;;;;5212001;28;8833;-81
2023/03/13 09:53:48;;;;;;;;;14.20;14.20;;;;;;;;5216410;28;8819;-81
2023/03/13 09:56:22;;;;;;;;;6.80;6.80;;;;;;;;5213484;28;8800;-81
2023/03/13 09:58:57;;;;;;;;;14.00;14.00;;;;;;;;5216189;28;9593;-81
2023/03/13 10:01:30;;;;;;;;;11.80;11.20;;;;;;;;5220636;28;9590;-81
2023/03/13 10:04:32;;;;;;;;;38.40;37.00;;;;;;;;5223917;28;9542;-80
2023/03/13 10:07:03;;;;;;;;;6.00;5.00;;;;;;;;5215201;28;8811;-82
2023/03/13 10:09:36;;;;;;;;;19.60;19.20;;;;;;;;5193890;28;8825;-82
2023/03/13 10:12:14;;;;;;;;;6.00;6.00;;;;;;;;5219080;28;8861;-81
2023/03/13 10:14:51;;;;;;;;;10.80;10.80;;;;;;;;5219353;28;8897;-82
2023/03/13 10:17:30;;;;;;;;;32.60;30.40;;;;;;;;5254510;28;8810;-84
2023/03/13 10:20:08;;;;;;;;;27.00;26.40;;;;;;;;5230660;28;8794;-78
2023/03/13 10:22:41;;;;;;;;;10.60;10.60;;;;;;;;5213767;28;8804;-82
2023/03/13 10:25:28;;;;;;;;;6.60;6.60;;;;;;;;5247330;28;8808;-76
2023/03/13 10:27:59;;;;;;;;;15.20;15.00;;;;;;;;5212654;28;8860;-83
2023/03/13 10:30:31;;;;;;;;;6.60;6.60;;;;;;;;5227894;28;8794;-80
2023/03/13 10:33:07;;;;;;;;;4.00;4.00;;;;;;;;5229292;28;8832;-86
2023/03/13 10:35:41;;;;;;;;;8.20;8.20;;;;;;;;5222706;28;8810;-83
2023/03/13 10:38:14;;;;;;;;;8.60;7.80;;;;;;;;5232189;28;8807;-72
2023/03/13 10:40:58;;;;;;;;;6.20;6.20;;;;;;;;5243138;28;9624;-75
2023/03/13 10:43:29;;;;;;;;;8.60;8.60;;;;;;;;5197696;28;8814;-76
2023/03/13 10:46:02;;;;;;;;;12.00;12.00;;;;;;;;5212846;28;8845;-77
2023/03/13 10:48:55;;;;;;;;;6.40;6.40;;;;;;;;5233647;28;9672;-75
2023/03/13 10:51:43;;;;;;;;;4.20;4.20;;;;;;;;5240745;28;9515;-75
2023/03/13 10:54:15;;;;;;;;;8.00;8.00;;;;;;;;5235704;28;8777;-75
2023/03/13 10:56:47;;;;;;;;;7.40;7.40;;;;;;;;5212858;28;8799;-74
2023/03/13 10:59:22;;;;;;;;;8.40;8.40;;;;;;;;5229808;28;8828;-75
2023/03/13 11:02:22;;;;;;;;;6.00;5.60;;;;;;;;5253252;28;8777;-77
2023/03/13 11:04:53;;;;;;;;;11.60;11.60;;;;;;;;5219595;28;8783;-76
2023/03/13 11:07:26;;;;;;;;;11.00;10.00;;;;;;;;5246198;28;8799;-77
2023/03/13 11:10:12;;;;;;;;;13.00;13.00;;;;;;;;5244628;28;8831;-75
2023/03/13 11:12:45;;;;;;;;;8.80;8.80;;;;;;;;5259486;28;8814;-74
2023/03/13 11:15:19;;;;;;;;;18.20;18.20;;;;;;;;5244106;28;8927;-75
2023/03/13 11:18:05;;;;;;;;;15.00;14.40;;;;;;;;5219436;28;8803;-75
2023/03/13 11:20:37;;;;;;;;;17.40;17.40;;;;;;;;5261178;28;8800;-76
2023/03/13 11:23:09;;;;;;;;;17.60;17.60;;;;;;;;5245702;28;9534;-76
2023/03/13 11:26:00;;;;;;;;;18.60;17.80;;;;;;;;5231011;28;8876;-77
2023/03/13 11:28:37;;;;;;;;;16.20;16.20;;;;;;;;5227401;28;8792;-77
2023/03/13 11:31:11;;;;;;;;;17.60;17.00;;;;;;;;5208799;28;8774;-75
2023/03/13 11:33:52;;;;;;;;;16.80;16.80;;;;;;;;5256281;28;8824;-76
2023/03/13 11:36:27;;;;;;;;;15.60;14.40;;;;;;;;5226207;28;8817;-77
2023/03/13 11:39:05;;;;;;;;;30.20;28.20;;;;;;;;5228792;28;8862;-75
2023/03/13 11:42:05;;;;;;;;;14.00;14.00;;;;;;;;5229507;28;8790;-74
2023/03/13 11:44:55;;;;;;;;;19.60;16.80;;;;;;;;5214258;28;8804;-76
2023/03/13 11:47:37;;;;;;;;;6.40;6.40;;;;;;;;5228475;28;8771;-76
2023/03/13 11:50:25;;;;;;;;;10.20;9.80;;;;;;;;5234691;28;8800;-76
2023/03/13 11:53:02;;;;;;;;;6.00;6.00;;;;;;;;5217040;28;8816;-76
2023/03/13 11:55:49;;;;;;;;;5.00;5.00;;;;;;;;5237993;28;8775;-76
2023/03/13 11:58:30;;;;;;;;;5.00;5.00;;;;;;;;5248523;28;8794;-76
2023/03/13 12:01:10;;;;;;;;;11.40;11.40;;;;;;;;5250815;28;8778;-76
2023/03/13 12:03:56;;;;;;;;;4.80;4.80;;;;;;;;5252178;28;8782;-77
2023/03/13 12:06:50;;;;;;;;;12.20;12.20;;;;;;;;5241375;28;8769;-79
2023/03/13 12:09:45;;;;;;;;;6.00;6.00;;;;;;;;5230955;28;8808;-77
2023/03/13 12:12:39;;;;;;;;;7.60;7.60;;;;;;;;5242261;28;8968;-77
2023/03/13 12:15:26;;;;;;;;;13.00;13.00;;;;;;;;5227299;28;8775;-77
2023/03/13 12:18:01;;;;;;;;;9.20;8.80;;;;;;;;5231326;28;8843;-77
2023/03/13 12:20:41;;;;;;;;;9.80;9.40;;;;;;;;5237153;28;8807;-79
2023/03/13 12:23:16;;;;;;;;;22.80;21.80;;;;;;;;5244581;28;8785;-77
2023/03/13 12:26:03;;;;;;;;;26.40;26.40;;;;;;;;5230276;28;9205;-76
2023/03/13 12:28:37;;;;;;;;;57.40;41.00;;;;;;;;5229824;28;8853;-76
2023/03/13 12:31:18;;;;;;;;;9.00;9.00;;;;;;;;5230231;28;8793;-75
2023/03/13 12:33:58;;;;;;;;;6.00;6.00;;;;;;;;5238969;28;8891;-74
2023/03/13 12:36:37;;;;;;;;;4.80;4.60;;;;;;;;5230764;28;8819;-76
2023/03/13 12:39:26;;;;;;;;;7.20;7.20;;;;;;;;5237920;28;8826;-75
2023/03/13 12:42:12;;;;;;;;;8.00;8.00;;;;;;;;5229957;28;8779;-78
2023/03/13 12:44:43;;;;;;;;;5.40;5.40;;;;;;;;5238522;28;11368;-77
2023/03/13 12:47:17;;;;;;;;;8.00;8.00;;;;;;;;5226415;28;8796;-77
2023/03/13 12:50:06;;;;;;;;;6.20;6.20;;;;;;;;5213356;28;8809;-77
2023/03/13 12:53:15;;;;;;;;;5.60;5.60;;;;;;;;5224230;28;8852;-76
2023/03/13 12:55:58;;;;;;;;;7.40;6.60;;;;;;;;5227582;28;8904;-76
2023/03/13 12:58:38;;;;;;;;;4.40;4.40;;;;;;;;5246642;28;8922;-76
2023/03/13 13:01:14;;;;;;;;;8.00;7.40;;;;;;;;5219532;28;8775;-79
2023/03/13 13:03:45;;;;;;;;;7.00;7.00;;;;;;;;5230333;28;8979;-79
2023/03/13 13:07:04;;;;;;;;;15.00;15.00;;;;;;;;5216676;28;8835;-79
2023/03/13 13:09:38;;;;;;;;;1.60;1.60;;;;;;;;5204577;28;8786;-79
2023/03/13 13:12:22;;;;;;;;;5.00;5.00;;;;;;;;5240044;28;8873;-78
2023/03/13 13:14:58;;;;;;;;;2.00;2.00;;;;;;;;5229335;28;8920;-76
2023/03/13 13:17:29;;;;;;;;;5.00;5.00;;;;;;;;5209322;28;8786;-77
2023/03/13 13:20:19;;;;;;;;;2.00;2.00;;;;;;;;5238450;28;8810;-77
2023/03/13 13:23:14;;;;;;;;;6.40;6.40;;;;;;;;5245818;28;8803;-76
2023/03/13 13:25:45;;;;;;;;;8.40;8.40;;;;;;;;5226823;28;8908;-76
2023/03/13 13:28:20;;;;;;;;;4.00;4.00;;;;;;;;5225771;28;8848;-76
2023/03/13 13:31:27;;;;;;;;;4.60;4.60;;;;;;;;5244470;28;8857;-76
2023/03/13 13:33:59;;;;;;;;;7.60;7.60;;;;;;;;5244363;28;8811;-76
2023/03/13 13:36:39;;;;;;;;;4.60;4.00;;;;;;;;5241652;28;8783;-76
2023/03/13 13:39:49;;;;;;;;;10.20;10.20;;;;;;;;5229659;28;8788;-76
2023/03/13 13:42:29;;;;;;;;;2.00;2.00;;;;;;;;5213627;28;8786;-76
2023/03/13 13:45:16;;;;;;;;;7.00;7.00;;;;;;;;5233806;28;8803;-77
2023/03/13 13:47:48;;;;;;;;;1.40;1.40;;;;;;;;5208540;28;9485;-76
2023/03/13 13:50:19;;;;;;;;;4.00;4.00;;;;;;;;5226023;28;8808;-76
2023/03/13 13:52:50;;;;;;;;;9.00;9.00;;;;;;;;5226462;28;8825;-76
2023/03/13 13:55:42;;;;;;;;;14.40;13.20;;;;;;;;5210729;28;8791;-77
2023/03/13 13:58:24;;;;;;;;;11.60;9.00;;;;;;;;5234866;28;8795;-76
2023/03/13 14:00:59;;;;;;;;;6.60;5.20;;;;;;;;5241264;28;8829;-78
2023/03/13 14:03:49;;;;;;;;;11.40;10.40;;;;;;;;5212194;28;8802;-76
2023/03/13 14:06:23;;;;;;;;;8.80;8.80;;;;;;;;5224394;28;8809;-75
2023/03/13 14:08:56;;;;;;;;;10.80;10.80;;;;;;;;5224263;28;8817;-77
2023/03/13 14:11:33;;;;;;;;;4.00;4.00;;;;;;;;5237854;28;8829;-76
2023/03/13 14:14:13;;;;;;;;;17.00;17.00;;;;;;;;5225397;28;8791;-75
2023/03/13 14:16:49;;;;;;;;;4.00;4.00;;;;;;;;5206345;28;8802;-79
2023/03/13 14:19:24;;;;;;;;;7.00;6.60;;;;;;;;5222507;28;8809;-75
2023/03/13 14:22:05;;;;;;;;;31.00;29.20;;;;;;;;5231403;28;8791;-74
2023/03/13 14:24:37;;;;;;;;;4.60;4.60;;;;;;;;5223384;28;8825;-77
2023/03/13 14:27:18;;;;;;;;;5.60;5.60;;;;;;;;5236784;28;8802;-76
2023/03/13 14:29:59;;;;;;;;;0.00;0.00;;;;;;;;5213444;28;8902;-78
2023/03/13 14:32:49;;;;;;;;;1.00;1.00;;;;;;;;5248158;28;8834;-75
2023/03/13 14:35:21;;;;;;;;;4.80;4.80;;;;;;;;5265210;28;8948;-74
2023/03/13 14:38:00;;;;;;;;;4.00;4.00;;;;;;;;5260180;28;8799;-74
2023/03/13 14:40:33;;;;;;;;;6.80;5.40;;;;;;;;5209734;28;8784;-74
2023/03/13 14:43:15;;;;;;;;;17.40;17.40;;;;;;;;5216867;28;8933;-72
2023/03/13 14:45:48;;;;;;;;;12.40;11.60;;;;;;;;5214462;28;8841;-73
2023/03/13 14:48:39;;;;;;;;;20.40;20.00;;;;;;;;5218535;28;8797;-74
2023/03/13 14:51:28;;;;;;;;;10.00;10.00;;;;;;;;5215856;28;8814;-72
2023/03/13 14:54:00;;;;;;;;;9.00;8.00;;;;;;;;5266828;28;8786;-75
2023/03/13 14:56:33;;;;;;;;;16.80;16.80;;;;;;;;5232490;28;8767;-81
2023/03/13 14:59:08;;;;;;;;;19.20;18.20;;;;;;;;5249191;28;8786;-78
2023/03/13 15:01:39;;;;;;;;;27.00;27.00;;;;;;;;5239436;28;8785;-74
2023/03/13 15:04:10;;;;;;;;;31.00;29.20;;;;;;;;5219027;28;9486;-78
2023/03/13 15:06:42;;;;;;;;;15.50;15.50;;;;;;;;5267146;28;8793;-73
2023/03/13 15:09:15;;;;;;;;;11.40;11.40;;;;;;;;5216005;28;8795;-74
2023/03/13 15:11:53;;;;;;;;;17.20;17.00;;;;;;;;5224982;28;8763;-74
2023/03/13 15:14:35;;;;;;;;;11.20;10.60;;;;;;;;5207211;28;8787;-74
2023/03/13 15:17:11;;;;;;;;;7.80;7.80;;;;;;;;5207026;28;8919;-76
2023/03/13 15:19:42;;;;;;;;;13.60;13.20;;;;;;;;5228742;28;8797;-73
2023/03/13 15:22:14;;;;;;;;;17.80;17.80;;;;;;;;5248592;28;8798;-76
2023/03/13 15:24:45;;;;;;;;;10.20;10.00;;;;;;;;5253025;28;8790;-76
2023/03/13 15:27:17;;;;;;;;;11.00;11.00;;;;;;;;5270994;28;8814;-76
2023/03/13 15:30:07;;;;;;;;;10.80;10.80;;;;;;;;5270798;28;8905;-75
2023/03/13 15:32:38;;;;;;;;;9.40;9.40;;;;;;;;5271148;28;8821;-74
2023/03/13 15:35:22;;;;;;;;;5.20;5.20;;;;;;;;5255153;28;8774;-75
2023/03/13 15:38:16;;;;;;;;;9.40;9.40;;;;;;;;5251015;28;8809;-76
2023/03/13 15:40:47;;;;;;;;;7.80;7.80;;;;;;;;5236121;28;8850;-76
2023/03/13 15:43:19;;;;;;;;;13.00;10.00;;;;;;;;5217250;28;8824;-75
2023/03/13 15:45:50;;;;;;;;;16.40;15.40;;;;;;;;5249415;28;8791;-77
2023/03/13 15:48:22;;;;;;;;;24.60;24.60;;;;;;;;5231927;28;8789;-75